sensor_id;sensor_type;location;lat;lon;timestamp;pressure;altitude;pressure_sealevel;temperature;humidity
45621;BME280;31345;51.522;10.702;2022-07-23T00:00:27;99255.91;;;17.71;95.47
45621;BME280;31345;51.522;10.702;2022-07-23T00:02:54;99257.22;;;17.95;92.59
45621;BME280;31345;51.522;10.702;2022-07-23T00:05:22;99269.41;;;18.06;91.37
45621;BME280;31345;51.522;10.702;2022-07-23T00:07:50;99281.09;;;18.13;90.67
45621;BME280;31345;51.522;10.702;2022-07-23T00:10:17;99284.41;;;18.16;90.77
45621;BME280;31345;51.522;10.702;2022-07-23T00:12:45;99278.59;;;18.12;91.56
45621;BME280;31345;51.522;10.702;2022-07-23T00:15:14;99282.91;;;18.13;92.16
45621;BME280;31345;51.522;10.702;2022-07-23T00:17:41;99298.91;;;18.11;91.51
45621;BME280;31345;51.522;10.702;2022-07-23T00:20:09;99313.81;;;18.12;92.06
45621;BME280;31345;51.522;10.702;2022-07-23T00:25:22;99309.09;;;18.06;93.61
45621;BME280;31345;51.522;10.702;2022-07-23T00:27:51;99299.31;;;17.69;97.33
45621;BME280;31345;51.522;10.702;2022-07-23T00:30:20;99286.00;;;17.51;100.00
45621;BME280;31345;51.522;10.702;2022-07-23T00:32:49;99295.84;;;17.58;100.00
45621;BME280;31345;51.522;10.702;2022-07-23T00:35:20;99321.53;;;17.86;99.73
45621;BME280;31345;51.522;10.702;2022-07-23T00:37:48;99323.25;;;17.77;100.00
45621;BME280;31345;51.522;10.702;2022-07-23T00:40:16;99294.75;;;17.51;100.00
45621;BME280;31345;51.522;10.702;2022-07-23T00:42:44;99281.81;;;17.38;100.00
45621;BME280;31345;51.522;10.702;2022-07-23T00:45:12;99258.44;;;16.94;100.00
45621;BME280;31345;51.522;10.702;2022-07-23T00:47:41;99238.69;;;16.78;100.00
45621;BME280;31345;51.522;10.702;2022-07-23T00:50:09;99254.94;;;16.83;100.00
45621;BME280;31345;51.522;10.702;2022-07-23T00:52:38;99267.88;;;16.87;100.00
45621;BME280;31345;51.522;10.702;2022-07-23T00:55:08;99244.91;;;16.48;100.00
45621;BME280;31345;51.522;10.702;2022-07-23T00:57:36;99227.41;;;16.46;100.00
45621;BME280;31345;51.522;10.702;2022-07-23T01:00:07;99253.69;;;16.88;100.00
45621;BME280;31345;51.522;10.702;2022-07-23T01:02:35;99246.06;;;16.65;100.00
45621;BME280;31345;51.522;10.702;2022-07-23T01:05:05;99224.81;;;16.76;100.00
45621;BME280;31345;51.522;10.702;2022-07-23T01:07:33;99232.28;;;16.61;100.00
45621;BME280;31345;51.522;10.702;2022-07-23T01:10:01;99233.41;;;16.78;100.00
45621;BME280;31345;51.522;10.702;2022-07-23T01:12:29;99218.13;;;17.02;100.00
45621;BME280;31345;51.522;10.702;2022-07-23T01:14:58;99214.06;;;17.27;100.00
45621;BME280;31345;51.522;10.702;2022-07-23T01:17:28;99215.59;;;17.30;100.00
45621;BME280;31345;51.522;10.702;2022-07-23T01:19:56;99217.00;;;17.24;100.00
45621;BME280;31345;51.522;10.702;2022-07-23T01:22:31;99227.41;;;17.26;100.00
45621;BME280;31345;51.522;10.702;2022-07-23T01:24:59;99225.91;;;17.23;100.00
45621;BME280;31345;51.522;10.702;2022-07-23T01:27:28;99217.41;;;17.39;100.00
45621;BME280;31345;51.522;10.702;2022-07-23T01:30:03;99214.53;;;17.03;100.00
45621;BME280;31345;51.522;10.702;2022-07-23T01:32:31;99221.47;;;16.94;100.00
45621;BME280;31345;51.522;10.702;2022-07-23T01:34:59;99211.03;;;16.92;100.00
45621;BME280;31345;51.522;10.702;2022-07-23T01:37:26;99186.72;;;16.89;100.00
45621;BME280;31345;51.522;10.702;2022-07-23T01:39:56;99179.22;;;16.94;100.00
45621;BME280;31345;51.522;10.702;2022-07-23T01:42:24;99173.78;;;16.95;100.00
45621;BME280;31345;51.522;10.702;2022-07-23T01:44:53;99181.81;;;17.23;100.00
45621;BME280;31345;51.522;10.702;2022-07-23T01:47:21;99197.75;;;17.61;100.00
45621;BME280;31345;51.522;10.702;2022-07-23T01:49:52;99201.91;;;17.64;100.00
45621;BME280;31345;51.522;10.702;2022-07-23T01:52:40;99189.03;;;17.21;100.00
45621;BME280;31345;51.522;10.702;2022-07-23T01:55:09;99187.28;;;17.02;100.00
45621;BME280;31345;51.522;10.702;2022-07-23T01:57:41;99210.34;;;17.10;100.00
45621;BME280;31345;51.522;10.702;2022-07-23T02:00:12;99215.78;;;16.79;100.00
45621;BME280;31345;51.522;10.702;2022-07-23T02:02:40;99221.59;;;16.92;100.00
45621;BME280;31345;51.522;10.702;2022-07-23T02:05:08;99209.91;;;17.15;100.00
45621;BME280;31345;51.522;10.702;2022-07-23T02:07:37;99170.03;;;17.08;100.00
45621;BME280;31345;51.522;10.702;2022-07-23T02:10:05;99151.16;;;16.73;100.00
45621;BME280;31345;51.522;10.702;2022-07-23T02:12:34;99140.88;;;16.40;100.00
45621;BME280;31345;51.522;10.702;2022-07-23T02:15:02;99179.75;;;17.07;100.00
45621;BME280;31345;51.522;10.702;2022-07-23T02:17:30;99190.59;;;17.24;100.00
45621;BME280;31345;51.522;10.702;2022-07-23T02:20:02;99186.59;;;17.10;100.00
45621;BME280;31345;51.522;10.702;2022-07-23T02:22:29;99190.44;;;17.26;100.00
45621;BME280;31345;51.522;10.702;2022-07-23T02:24:57;99202.97;;;17.23;100.00
45621;BME280;31345;51.522;10.702;2022-07-23T02:27:25;99205.47;;;17.25;100.00
45621;BME280;31345;51.522;10.702;2022-07-23T02:29:56;99189.50;;;16.97;100.00
45621;BME280;31345;51.522;10.702;2022-07-23T02:32:26;99177.13;;;16.68;100.00
45621;BME280;31345;51.522;10.702;2022-07-23T02:34:54;99190.63;;;16.84;100.00
45621;BME280;31345;51.522;10.702;2022-07-23T02:37:22;99195.34;;;16.81;100.00
45621;BME280;31345;51.522;10.702;2022-07-23T02:39:49;99185.63;;;16.81;100.00
45621;BME280;31345;51.522;10.702;2022-07-23T02:42:17;99186.28;;;16.93;100.00
45621;BME280;31345;51.522;10.702;2022-07-23T02:44:49;99182.81;;;17.13;100.00
45621;BME280;31345;51.522;10.702;2022-07-23T02:47:20;99174.78;;;16.75;100.00
45621;BME280;31345;51.522;10.702;2022-07-23T02:49:50;99168.50;;;16.95;100.00
45621;BME280;31345;51.522;10.702;2022-07-23T02:52:18;99169.91;;;16.90;100.00
45621;BME280;31345;51.522;10.702;2022-07-23T02:54:45;99165.75;;;16.77;100.00
45621;BME280;31345;51.522;10.702;2022-07-23T02:57:16;99170.59;;;16.92;100.00
45621;BME280;31345;51.522;10.702;2022-07-23T02:59:47;99205.72;;;17.32;100.00
45621;BME280;31345;51.522;10.702;2022-07-23T03:02:14;99214.78;;;17.19;100.00
45621;BME280;31345;51.522;10.702;2022-07-23T03:04:43;99213.00;;;17.00;100.00
45621;BME280;31345;51.522;10.702;2022-07-23T03:07:11;99205.75;;;16.92;100.00
45621;BME280;31345;51.522;10.702;2022-07-23T03:09:39;99214.53;;;17.13;100.00
45621;BME280;31345;51.522;10.702;2022-07-23T03:12:08;99212.28;;;17.18;100.00
45621;BME280;31345;51.522;10.702;2022-07-23T03:14:39;99215.47;;;16.92;100.00
45621;BME280;31345;51.522;10.702;2022-07-23T03:17:06;99215.91;;;16.77;100.00
45621;BME280;31345;51.522;10.702;2022-07-23T03:19:34;99204.50;;;16.77;100.00
45621;BME280;31345;51.522;10.702;2022-07-23T03:22:04;99193.66;;;16.70;100.00
45621;BME280;31345;51.522;10.702;2022-07-23T03:24:32;99194.22;;;16.74;100.00
45621;BME280;31345;51.522;10.702;2022-07-23T03:27:14;99196.59;;;16.96;100.00
45621;BME280;31345;51.522;10.702;2022-07-23T03:29:44;99205.50;;;17.05;100.00
45621;BME280;31345;51.522;10.702;2022-07-23T03:32:12;99215.47;;;16.92;100.00
45621;BME280;31345;51.522;10.702;2022-07-23T03:34:40;99217.16;;;16.83;100.00
45621;BME280;31345;51.522;10.702;2022-07-23T03:37:09;99223.97;;;16.85;100.00
45621;BME280;31345;51.522;10.702;2022-07-23T03:39:37;99209.78;;;16.87;100.00
45621;BME280;31345;51.522;10.702;2022-07-23T03:42:06;99189.66;;;16.95;100.00
45621;BME280;31345;51.522;10.702;2022-07-23T03:44:33;99181.84;;;17.04;100.00
45621;BME280;31345;51.522;10.702;2022-07-23T03:47:03;99190.75;;;16.73;100.00
45621;BME280;31345;51.522;10.702;2022-07-23T03:49:32;99200.19;;;16.66;100.00
45621;BME280;31345;51.522;10.702;2022-07-23T03:52:00;99210.91;;;16.94;100.00
45621;BME280;31345;51.522;10.702;2022-07-23T03:54:29;99218.44;;;16.89;100.00
45621;BME280;31345;51.522;10.702;2022-07-23T03:56:57;99225.09;;;16.83;100.00
45621;BME280;31345;51.522;10.702;2022-07-23T03:59:25;99231.34;;;16.72;100.00
45621;BME280;31345;51.522;10.702;2022-07-23T04:01:52;99228.84;;;16.70;100.00
45621;BME280;31345;51.522;10.702;2022-07-23T04:04:20;99225.34;;;16.70;100.00
45621;BME280;31345;51.522;10.702;2022-07-23T04:06:48;99231.75;;;16.77;100.00
45621;BME280;31345;51.522;10.702;2022-07-23T04:09:16;99228.00;;;16.90;100.00
45621;BME280;31345;51.522;10.702;2022-07-23T04:11:45;99224.25;;;17.02;100.00
45621;BME280;31345;51.522;10.702;2022-07-23T04:14:12;99220.63;;;17.13;100.00
45621;BME280;31345;51.522;10.702;2022-07-23T04:16:40;99220.06;;;17.09;100.00
45621;BME280;31345;51.522;10.702;2022-07-23T04:19:07;99219.22;;;17.19;100.00
45621;BME280;31345;51.522;10.702;2022-07-23T04:21:46;99222.56;;;17.31;100.00
45621;BME280;31345;51.522;10.702;2022-07-23T04:24:14;99226.16;;;17.30;100.00
45621;BME280;31345;51.522;10.702;2022-07-23T04:26:42;99232.13;;;17.42;100.00
45621;BME280;31345;51.522;10.702;2022-07-23T04:29:11;99231.03;;;17.34;100.00
45621;BME280;31345;51.522;10.702;2022-07-23T04:31:38;99239.81;;;17.35;100.00
45621;BME280;31345;51.522;10.702;2022-07-23T04:34:07;99233.25;;;17.39;100.00
45621;BME280;31345;51.522;10.702;2022-07-23T04:36:35;99240.34;;;17.39;100.00
45621;BME280;31345;51.522;10.702;2022-07-23T04:39:02;99245.50;;;17.30;100.00
45621;BME280;31345;51.522;10.702;2022-07-23T04:41:31;99243.69;;;17.31;100.00
45621;BME280;31345;51.522;10.702;2022-07-23T04:43:58;99245.09;;;17.45;100.00
45621;BME280;31345;51.522;10.702;2022-07-23T04:46:29;99248.16;;;17.50;100.00
45621;BME280;31345;51.522;10.702;2022-07-23T04:48:57;99258.19;;;17.46;100.00
45621;BME280;31345;51.522;10.702;2022-07-23T04:51:25;99253.16;;;17.33;100.00
45621;BME280;31345;51.522;10.702;2022-07-23T04:53:52;99254.41;;;17.39;100.00
45621;BME280;31345;51.522;10.702;2022-07-23T04:56:20;99251.91;;;17.38;100.00
45621;BME280;31345;51.522;10.702;2022-07-23T04:58:48;99241.06;;;17.31;100.00
45621;BME280;31345;51.522;10.702;2022-07-23T05:01:17;99245.91;;;17.16;100.00
45621;BME280;31345;51.522;10.702;2022-07-23T05:03:47;99226.75;;;16.94;100.00
45621;BME280;31345;51.522;10.702;2022-07-23T05:06:15;99219.22;;;16.79;100.00
45621;BME280;31345;51.522;10.702;2022-07-23T05:08:43;99204.91;;;16.92;100.00
45621;BME280;31345;51.522;10.702;2022-07-23T05:11:11;99213.81;;;16.81;100.00
45621;BME280;31345;51.522;10.702;2022-07-23T05:13:39;99203.69;;;16.76;100.00
45621;BME280;31345;51.522;10.702;2022-07-23T05:16:08;99214.78;;;16.70;100.00
45621;BME280;31345;51.522;10.702;2022-07-23T05:18:36;99213.56;;;16.94;100.00
45621;BME280;31345;51.522;10.702;2022-07-23T05:21:06;99217.56;;;17.18;100.00
45621;BME280;31345;51.522;10.702;2022-07-23T05:23:34;99208.41;;;17.02;100.00
45621;BME280;31345;51.522;10.702;2022-07-23T05:26:01;99205.50;;;16.95;100.00
45621;BME280;31345;51.522;10.702;2022-07-23T05:28:30;99206.16;;;17.17;100.00
45621;BME280;31345;51.522;10.702;2022-07-23T05:30:58;99209.34;;;17.41;100.00
45621;BME280;31345;51.522;10.702;2022-07-23T05:33:28;99204.19;;;17.39;100.00
45621;BME280;31345;51.522;10.702;2022-07-23T05:36:00;99203.06;;;17.42;100.00
45621;BME280;31345;51.522;10.702;2022-07-23T05:38:31;99205.72;;;17.52;100.00
45621;BME280;31345;51.522;10.702;2022-07-23T05:41:00;99214.47;;;17.62;100.00
45621;BME280;31345;51.522;10.702;2022-07-23T05:43:30;99212.34;;;17.66;100.00
45621;BME280;31345;51.522;10.702;2022-07-23T05:46:01;99202.34;;;17.59;100.00
45621;BME280;31345;51.522;10.702;2022-07-23T05:48:29;99211.53;;;17.55;100.00
45621;BME280;31345;51.522;10.702;2022-07-23T05:51:02;99212.06;;;17.69;100.00
45621;BME280;31345;51.522;10.702;2022-07-23T05:53:34;99209.53;;;17.77;100.00
45621;BME280;31345;51.522;10.702;2022-07-23T05:56:07;99222.50;;;17.70;100.00
45621;BME280;31345;51.522;10.702;2022-07-23T05:58:37;99231.13;;;17.62;100.00
45621;BME280;31345;51.522;10.702;2022-07-23T06:01:05;99228.47;;;17.72;100.00
45621;BME280;31345;51.522;10.702;2022-07-23T06:03:41;99219.56;;;17.73;100.00
45621;BME280;31345;51.522;10.702;2022-07-23T06:06:09;99214.41;;;17.72;100.00
45621;BME280;31345;51.522;10.702;2022-07-23T06:08:39;99215.16;;;17.54;100.00
45621;BME280;31345;51.522;10.702;2022-07-23T06:11:08;99213.06;;;17.58;100.00
45621;BME280;31345;51.522;10.702;2022-07-23T06:13:37;99225.44;;;17.67;100.00
45621;BME280;31345;51.522;10.702;2022-07-23T06:16:04;99219.59;;;17.64;100.00
45621;BME280;31345;51.522;10.702;2022-07-23T06:18:32;99214.19;;;17.55;100.00
45621;BME280;31345;51.522;10.702;2022-07-23T06:21:00;99206.38;;;17.64;100.00
45621;BME280;31345;51.522;10.702;2022-07-23T06:23:28;99213.13;;;17.28;100.00
45621;BME280;31345;51.522;10.702;2022-07-23T06:25:57;99210.31;;;17.30;100.00
45621;BME280;31345;51.522;10.702;2022-07-23T06:28:24;99221.84;;;17.39;100.00
45621;BME280;31345;51.522;10.702;2022-07-23T06:30:52;99226.84;;;17.42;100.00
45621;BME280;31345;51.522;10.702;2022-07-23T06:33:20;99230.06;;;17.45;100.00
45621;BME280;31345;51.522;10.702;2022-07-23T06:35:48;99229.59;;;17.70;100.00
45621;BME280;31345;51.522;10.702;2022-07-23T06:38:15;99234.16;;;17.78;100.00
45621;BME280;31345;51.522;10.702;2022-07-23T06:40:43;99229.91;;;17.95;100.00
45621;BME280;31345;51.522;10.702;2022-07-23T06:43:12;99237.97;;;18.03;100.00
45621;BME280;31345;51.522;10.702;2022-07-23T06:45:40;99232.63;;;18.13;100.00
45621;BME280;31345;51.522;10.702;2022-07-23T06:48:08;99236.88;;;18.24;100.00
45621;BME280;31345;51.522;10.702;2022-07-23T06:50:35;99231.75;;;18.22;100.00
45621;BME280;31345;51.522;10.702;2022-07-23T06:53:04;99234.19;;;18.34;100.00
45621;BME280;31345;51.522;10.702;2022-07-23T06:55:31;99225.75;;;18.20;100.00
45621;BME280;31345;51.522;10.702;2022-07-23T06:58:01;99227.22;;;18.05;100.00
45621;BME280;31345;51.522;10.702;2022-07-23T07:00:30;99230.47;;;18.26;100.00
45621;BME280;31345;51.522;10.702;2022-07-23T07:02:58;99233.03;;;18.18;100.00
45621;BME280;31345;51.522;10.702;2022-07-23T07:05:26;99248.44;;;18.23;100.00
45621;BME280;31345;51.522;10.702;2022-07-23T07:07:54;99250.00;;;18.44;100.00
45621;BME280;31345;51.522;10.702;2022-07-23T07:10:24;99243.28;;;18.49;100.00
45621;BME280;31345;51.522;10.702;2022-07-23T07:12:52;99240.47;;;18.61;100.00
45621;BME280;31345;51.522;10.702;2022-07-23T07:15:19;99236.47;;;18.75;100.00
45621;BME280;31345;51.522;10.702;2022-07-23T07:17:48;99240.78;;;18.76;100.00
45621;BME280;31345;51.522;10.702;2022-07-23T07:20:16;99238.31;;;18.93;100.00
45621;BME280;31345;51.522;10.702;2022-07-23T07:22:43;99230.94;;;19.04;100.00
45621;BME280;31345;51.522;10.702;2022-07-23T07:25:11;99230.19;;;19.12;100.00
45621;BME280;31345;51.522;10.702;2022-07-23T07:27:39;99233.06;;;19.19;100.00
45621;BME280;31345;51.522;10.702;2022-07-23T07:30:07;99240.22;;;19.27;100.00
45621;BME280;31345;51.522;10.702;2022-07-23T07:32:35;99246.00;;;19.04;100.00
45621;BME280;31345;51.522;10.702;2022-07-23T07:35:05;99249.41;;;19.14;100.00
45621;BME280;31345;51.522;10.702;2022-07-23T07:37:33;99257.28;;;19.06;100.00
45621;BME280;31345;51.522;10.702;2022-07-23T07:40:01;99254.78;;;19.04;100.00
45621;BME280;31345;51.522;10.702;2022-07-23T07:42:29;99261.00;;;19.13;100.00
45621;BME280;31345;51.522;10.702;2022-07-23T07:44:58;99265.38;;;19.23;100.00
45621;BME280;31345;51.522;10.702;2022-07-23T07:47:26;99266.72;;;19.27;100.00
45621;BME280;31345;51.522;10.702;2022-07-23T07:49:53;99276.34;;;19.28;100.00
45621;BME280;31345;51.522;10.702;2022-07-23T07:52:23;99284.00;;;19.31;100.00
45621;BME280;31345;51.522;10.702;2022-07-23T07:54:51;99287.94;;;19.27;100.00
45621;BME280;31345;51.522;10.702;2022-07-23T07:57:18;99292.78;;;19.32;100.00
45621;BME280;31345;51.522;10.702;2022-07-23T07:59:46;99294.00;;;19.37;100.00
45621;BME280;31345;51.522;10.702;2022-07-23T08:02:14;99299.00;;;19.40;100.00
45621;BME280;31345;51.522;10.702;2022-07-23T08:04:41;99294.28;;;19.34;100.00
45621;BME280;31345;51.522;10.702;2022-07-23T08:07:09;99305.13;;;19.41;100.00
45621;BME280;31345;51.522;10.702;2022-07-23T08:09:37;99308.16;;;19.28;100.00
45621;BME280;31345;51.522;10.702;2022-07-23T08:12:05;99312.56;;;19.37;100.00
45621;BME280;31345;51.522;10.702;2022-07-23T08:14:33;99303.38;;;19.50;100.00
45621;BME280;31345;51.522;10.702;2022-07-23T08:17:01;99299.56;;;19.71;100.00
45621;BME280;31345;51.522;10.702;2022-07-23T08:19:28;99307.69;;;19.69;100.00
45621;BME280;31345;51.522;10.702;2022-07-23T08:21:56;99309.41;;;19.78;100.00
45621;BME280;31345;51.522;10.702;2022-07-23T08:24:23;99308.53;;;19.96;100.00
45621;BME280;31345;51.522;10.702;2022-07-23T08:26:52;99314.25;;;20.44;100.00
45621;BME280;31345;51.522;10.702;2022-07-23T08:29:20;99312.69;;;20.33;96.79
45621;BME280;31345;51.522;10.702;2022-07-23T08:31:47;99314.50;;;20.60;99.79
45621;BME280;31345;51.522;10.702;2022-07-23T08:34:15;99315.81;;;20.64;97.92
45621;BME280;31345;51.522;10.702;2022-07-23T08:36:42;99315.34;;;20.33;96.96
45621;BME280;31345;51.522;10.702;2022-07-23T08:39:10;99325.19;;;20.06;99.88
45621;BME280;31345;51.522;10.702;2022-07-23T08:41:39;99326.91;;;20.24;100.00
45621;BME280;31345;51.522;10.702;2022-07-23T08:44:09;99315.91;;;20.11;99.02
45621;BME280;31345;51.522;10.702;2022-07-23T08:46:38;99324.69;;;20.46;98.99
45621;BME280;31345;51.522;10.702;2022-07-23T08:49:06;99318.19;;;20.75;95.55
45621;BME280;31345;51.522;10.702;2022-07-23T08:51:35;99322.38;;;20.86;94.47
45621;BME280;31345;51.522;10.702;2022-07-23T08:54:03;99328.34;;;20.88;97.53
45621;BME280;31345;51.522;10.702;2022-07-23T08:56:31;99332.03;;;21.04;94.04
45621;BME280;31345;51.522;10.702;2022-07-23T08:58:59;99326.56;;;21.30;92.76
45621;BME280;31345;51.522;10.702;2022-07-23T09:01:28;99312.13;;;21.41;87.78
45621;BME280;31345;51.522;10.702;2022-07-23T09:03:55;99323.09;;;21.46;89.78
45621;BME280;31345;51.522;10.702;2022-07-23T09:06:23;99322.75;;;21.83;89.45
45621;BME280;31345;51.522;10.702;2022-07-23T09:08:51;99320.78;;;21.60;91.19
45621;BME280;31345;51.522;10.702;2022-07-23T09:11:19;99322.78;;;21.58;85.50
45621;BME280;31345;51.522;10.702;2022-07-23T09:13:48;99317.44;;;21.83;86.87
45621;BME280;31345;51.522;10.702;2022-07-23T09:16:17;99319.13;;;21.59;88.99
45621;BME280;31345;51.522;10.702;2022-07-23T09:18:48;99326.44;;;21.65;90.40
45621;BME280;31345;51.522;10.702;2022-07-23T09:21:23;99324.44;;;21.76;88.29
45621;BME280;31345;51.522;10.702;2022-07-23T09:23:55;99317.75;;;22.05;88.63
45621;BME280;31345;51.522;10.702;2022-07-23T09:29:06;99319.75;;;21.36;88.86
45621;BME280;31345;51.522;10.702;2022-07-23T09:31:43;99315.13;;;21.55;85.72
45621;BME280;31345;51.522;10.702;2022-07-23T09:34:14;99315.97;;;21.72;86.19
45621;BME280;31345;51.522;10.702;2022-07-23T09:36:42;99318.59;;;21.89;87.05
45621;BME280;31345;51.522;10.702;2022-07-23T09:39:11;99316.59;;;21.91;84.64
45621;BME280;31345;51.522;10.702;2022-07-23T09:41:41;99318.66;;;22.20;85.77
45621;BME280;31345;51.522;10.702;2022-07-23T09:44:13;99314.81;;;22.31;84.84
45621;BME280;31345;51.522;10.702;2022-07-23T09:46:43;99313.63;;;22.42;82.28
45621;BME280;31345;51.522;10.702;2022-07-23T09:49:17;99303.38;;;22.22;77.16
45621;BME280;31345;51.522;10.702;2022-07-23T09:51:48;99316.66;;;22.39;81.05
45621;BME280;31345;51.522;10.702;2022-07-23T09:54:27;99314.03;;;22.14;82.83
45621;BME280;31345;51.522;10.702;2022-07-23T09:57:00;99303.16;;;22.32;77.48
45621;BME280;31345;51.522;10.702;2022-07-23T09:59:30;99304.81;;;22.33;77.11
45621;BME280;31345;51.522;10.702;2022-07-23T10:02:00;99309.94;;;22.51;75.99
45621;BME280;31345;51.522;10.702;2022-07-23T10:04:34;99304.34;;;22.70;79.27
45621;BME280;31345;51.522;10.702;2022-07-23T10:07:26;99307.41;;;22.90;78.12
45621;BME280;31345;51.522;10.702;2022-07-23T10:10:15;99306.75;;;23.11;76.21
45621;BME280;31345;51.522;10.702;2022-07-23T10:13:01;99310.63;;;22.45;76.99
45621;BME280;31345;51.522;10.702;2022-07-23T10:15:52;99302.25;;;22.08;78.27
45621;BME280;31345;51.522;10.702;2022-07-23T10:18:20;99306.38;;;22.19;79.03
45621;BME280;31345;51.522;10.702;2022-07-23T10:20:49;99295.09;;;22.00;74.49
45621;BME280;31345;51.522;10.702;2022-07-23T10:23:24;99304.28;;;21.90;77.02
45621;BME280;31345;51.522;10.702;2022-07-23T10:26:03;99299.66;;;22.40;79.02
45621;BME280;31345;51.522;10.702;2022-07-23T10:28:54;99286.03;;;22.67;76.26
45621;BME280;31345;51.522;10.702;2022-07-23T10:31:34;99288.72;;;23.13;76.82
45621;BME280;31345;51.522;10.702;2022-07-23T10:34:07;99291.22;;;23.15;74.95
45621;BME280;31345;51.522;10.702;2022-07-23T10:39:15;99288.00;;;22.96;75.22
45621;BME280;31345;51.522;10.702;2022-07-23T10:41:45;99286.84;;;22.99;74.59
45621;BME280;31345;51.522;10.702;2022-07-23T10:44:14;99291.44;;;23.37;74.27
45621;BME280;31345;51.522;10.702;2022-07-23T10:46:58;99288.72;;;23.60;73.42
45621;BME280;31345;51.522;10.702;2022-07-23T10:49:35;99285.56;;;23.57;70.85
45621;BME280;31345;51.522;10.702;2022-07-23T10:52:23;99291.00;;;23.25;73.31
45621;BME280;31345;51.522;10.702;2022-07-23T10:54:54;99286.13;;;23.28;73.73
45621;BME280;31345;51.522;10.702;2022-07-23T10:57:24;99289.00;;;23.27;72.02
45621;BME280;31345;51.522;10.702;2022-07-23T11:00:17;99292.78;;;23.33;73.08
45621;BME280;31345;51.522;10.702;2022-07-23T11:02:48;99292.13;;;23.69;69.32
45621;BME280;31345;51.522;10.702;2022-07-23T11:05:18;99286.84;;;23.22;68.05
45621;BME280;31345;51.522;10.702;2022-07-23T11:08:14;99291.88;;;23.17;71.65
45621;BME280;31345;51.522;10.702;2022-07-23T11:10:46;99294.69;;;23.62;74.22
45621;BME280;31345;51.522;10.702;2022-07-23T11:13:26;99292.59;;;23.58;71.70
45621;BME280;31345;51.522;10.702;2022-07-23T11:16:08;99295.44;;;23.71;74.24
45621;BME280;31345;51.522;10.702;2022-07-23T11:18:59;99283.88;;;23.79;69.84
45621;BME280;31345;51.522;10.702;2022-07-23T11:21:52;99292.88;;;23.78;69.79
45621;BME280;31345;51.522;10.702;2022-07-23T11:24:24;99293.44;;;23.73;70.36
45621;BME280;31345;51.522;10.702;2022-07-23T11:26:59;99292.78;;;23.71;71.02
45621;BME280;31345;51.522;10.702;2022-07-23T11:29:44;99285.78;;;23.70;70.30
45621;BME280;31345;51.522;10.702;2022-07-23T11:32:22;99294.19;;;23.97;70.02
45621;BME280;31345;51.522;10.702;2022-07-23T11:34:51;99300.88;;;23.78;70.46
45621;BME280;31345;51.522;10.702;2022-07-23T11:37:32;99299.31;;;23.84;69.98
45621;BME280;31345;51.522;10.702;2022-07-23T11:40:02;99294.19;;;23.97;66.64
45621;BME280;31345;51.522;10.702;2022-07-23T11:42:34;99295.53;;;23.78;66.79
45621;BME280;31345;51.522;10.702;2022-07-23T11:45:03;99302.75;;;23.77;69.90
45621;BME280;31345;51.522;10.702;2022-07-23T11:47:31;99300.63;;;24.03;67.78
45621;BME280;31345;51.522;10.702;2022-07-23T11:50:00;99296.59;;;24.37;65.21
45621;BME280;31345;51.522;10.702;2022-07-23T11:52:28;99296.84;;;24.42;66.04
45621;BME280;31345;51.522;10.702;2022-07-23T11:54:58;99297.16;;;24.17;63.83
45621;BME280;31345;51.522;10.702;2022-07-23T11:57:37;99292.25;;;24.06;64.69
45621;BME280;31345;51.522;10.702;2022-07-23T12:00:18;99296.41;;;24.09;66.22
45621;BME280;31345;51.522;10.702;2022-07-23T12:02:48;99290.34;;;24.15;64.94
45621;BME280;31345;51.522;10.702;2022-07-23T12:05:17;99296.50;;;24.30;64.88
45621;BME280;31345;51.522;10.702;2022-07-23T12:07:46;99291.06;;;24.24;63.07
45621;BME280;31345;51.522;10.702;2022-07-23T12:10:18;99293.66;;;24.32;63.78
45621;BME280;31345;51.522;10.702;2022-07-23T12:12:49;99287.72;;;24.37;63.47
45621;BME280;31345;51.522;10.702;2022-07-23T12:15:20;99293.25;;;24.50;63.13
45621;BME280;31345;51.522;10.702;2022-07-23T12:17:49;99289.91;;;24.48;63.35
45621;BME280;31345;51.522;10.702;2022-07-23T12:20:21;99285.19;;;24.13;63.13
45621;BME280;31345;51.522;10.702;2022-07-23T12:22:52;99281.03;;;24.26;64.07
45621;BME280;31345;51.522;10.702;2022-07-23T12:25:21;99282.13;;;24.31;63.45
45621;BME280;31345;51.522;10.702;2022-07-23T12:28:01;99279.91;;;24.35;62.67
45621;BME280;31345;51.522;10.702;2022-07-23T12:30:31;99275.84;;;24.24;62.98
45621;BME280;31345;51.522;10.702;2022-07-23T12:32:59;99276.50;;;24.26;62.93
45621;BME280;31345;51.522;10.702;2022-07-23T12:38:35;99279.78;;;24.59;61.98
45621;BME280;31345;51.522;10.702;2022-07-23T12:41:03;99273.88;;;24.63;60.58
45621;BME280;31345;51.522;10.702;2022-07-23T12:43:35;99277.69;;;24.76;59.62
45621;BME280;31345;51.522;10.702;2022-07-23T12:46:04;99281.19;;;24.76;58.67
45621;BME280;31345;51.522;10.702;2022-07-23T12:48:33;99279.22;;;24.48;58.76
45621;BME280;31345;51.522;10.702;2022-07-23T12:51:04;99274.38;;;24.37;61.20
45621;BME280;31345;51.522;10.702;2022-07-23T12:53:33;99283.50;;;24.27;62.67
45621;BME280;31345;51.522;10.702;2022-07-23T12:56:08;99276.44;;;24.56;62.45
45621;BME280;31345;51.522;10.702;2022-07-23T12:58:45;99279.31;;;24.92;64.10
45621;BME280;31345;51.522;10.702;2022-07-23T13:01:24;99279.19;;;25.00;60.84
45621;BME280;31345;51.522;10.702;2022-07-23T13:04:01;99271.88;;;25.09;56.63
45621;BME280;31345;51.522;10.702;2022-07-23T13:06:30;99275.94;;;24.83;60.08
45621;BME280;31345;51.522;10.702;2022-07-23T13:08:59;99276.75;;;25.27;60.92